Home > Products > Valid Products > TAF

000
FTUS45 KRIW 031400 AAA
TAFWRL
TAF AMD
KWRL 031430Z 0315/0412 29012G20KT 3/4SM -SN OVC015
     FM031600 30013KT 2SM -SN OVC020
     FM031700 30013KT 5SM -SN OVC030
     FM031900 32010KT P6SM -SN BKN050
     FM040200 VRB04KT P6SM -SN SCT050 BKN080=



000
FTUS45 KRIW 031400 AAB
TAFJAC
TAF AMD
KJAC 031421Z 0314/0412 35018G28KT 1SM -SN BLSN SCT005 OVC015
      TEMPO 0314/0316 1/2SM SN BLSN OVC005
     FM031600 31015KT 5SM -SN BLSN BKN024
     FM031700 34011KT P6SM SCT025
     FM040000 36012KT P6SM FEW060
      AMD LTD TO CLD VIS AND WIND=



000
FTUS45 KRIW 031300 AAA
TAFCOD
TAF AMD
KCOD 031353Z 0314/0412 36012G18KT 5SM -SN BLSN SCT008 OVC015
      TEMPO 0314/0316 2SM -SN
     FM031900 01010KT 6SM -SN SCT025 BKN050
     FM040200 19006KT P6SM -SN BKN050
      AMD LTD TO CLD VIS AND WIND=



000
FTUS45 KRIW 031300 AAA
TAFCOD
TAF AMD
KCOD 031353Z 0314/0412 36012G18KT 5SM -SN BLSN SCT008 OVC015
      TEMPO 0314/0316 2SM -SN
     FM031900 01010KT 6SM -SN SCT025 BKN050
     FM040200 19006KT P6SM -SN BKN050
      AMD LTD TO CLD VIS AND WIND=



000
FTUS45 KRIW 031300 AAA
TAFRIW
TAF AMD
KRIW 031308Z 0313/0412 04010KT 2SM -SN BLSN SCT012 OVC025
      TEMPO 0313/0315 3/4SM -SN OVC008
     FM031630 02012G20KT 4SM -SN OVC025
     FM031900 02011KT 6SM -SN OVC040
     FM040300 VRB05KT P6SM -SN SCT030 BKN050=



000
FTUS45 KRIW 031300 AAA
TAFRIW
TAF AMD
KRIW 031308Z 0313/0412 04010KT 2SM -SN BLSN SCT012 OVC025
      TEMPO 0313/0315 3/4SM -SN OVC008
     FM031630 02012G20KT 4SM -SN OVC025
     FM031900 02011KT 6SM -SN OVC040
     FM040300 VRB05KT P6SM -SN SCT030 BKN050=



000
FTUS45 KRIW 031300 AAA
TAFJAC
TAF AMD
KJAC 031306Z 0313/0412 35015KT 1SM -SN BLSN SCT005 OVC015
     FM031500 31015KT 5SM -SN BLSN BKN024
     FM031700 34011KT P6SM SCT025
     FM040000 36012KT P6SM FEW060
      AMD LTD TO CLD VIS AND WIND=



000
FTUS45 KRIW 031100
TAFRIW
TAF
KRIW 031128Z 0312/0412 03015G25KT 2SM -SN BLSN SCT012 OVC025
     FM031600 02012G20KT 5SM -SN OVC025
     FM031900 02011KT 6SM -SN OVC040
     FM040300 VRB05KT P6SM -SN SCT030 BKN050=



000
FTUS45 KRIW 031100
TAFRKS
TAF
KRKS 031128Z 0312/0412 07010KT 5SM -SN SCT006 OVC015
      TEMPO 0315/0319 1SM -SN
     FM040200 08008KT 5SM -SN SCT015 BKN035
     FM040500 09006KT P6SM -SN BKN050=



000
FTUS45 KRIW 031100
TAFCPR
TAF
KCPR 031128Z 0312/0412 03012KT 4SM -SN SCT012 OVC025
      TEMPO 0312/0316 2SM -SN
     FM040300 24006KT P6SM -SN SCT030 BKN050=



000
FTUS45 KRIW 031100
TAFCOD
TAF
KCOD 031128Z 0312/0412 36012G18KT 5SM -SN BLSN SCT008 OVC015
     FM031900 01010KT 6SM -SN SCT025 BKN050
     FM040200 19006KT P6SM -SN BKN050
      AMD LTD TO CLD VIS AND WIND=



000
FTUS45 KRIW 031100
TAFLND
TAF
KLND 031128Z 0312/0412 VRB05KT 3/4SM -SN OVC007
     FM031600 32006KT 2SM -SN OVC015
     FM032000 02004KT 4SM -SN OVC025
     FM040200 VRB05KT P6SM -SN SCT030 BKN050=



000
FTUS45 KRIW 031100
TAFWRL
TAF
KWRL 031128Z 0312/0412 32015G25KT 6SM -SN SCT030 OVC050
     FM031400 32013KT 5SM -SN OVC030
     FM031900 32010KT P6SM -SN BKN050
     FM040200 VRB04KT P6SM -SN SCT050 BKN080=



000
FTUS45 KRIW 031100
TAFJAC
TAF
KJAC 031128Z 0312/0412 20015KT 1SM -SN BLSN SCT005 OVC015
     FM031500 31015KT 5SM -SN BLSN BKN024
     FM031700 34011KT P6SM SCT025
     FM040000 36012KT P6SM FEW060
      AMD LTD TO CLD VIS AND WIND=



000
FTUS45 KRIW 031100
TAFBPI
TAF
KBPI 031128Z 0312/0412 VRB05KT P6SM VCSH SCT015 OVC035
     FM031330 13007KT 3SM -SN SCT008 OVC015
      TEMPO 0314/0318 1SM -SN OVC008
     FM032100 34013KT P6SM SCT025 BKN040
     FM040200 35009KT P6SM SCT040=



000
FTUS45 KRIW 031100
TAFLND
TAF
KLND 031128Z 0312/0412 VRB05KT 3/4SM -SN OVC007
     FM031600 32006KT 2SM -SN OVC015
     FM032000 02004KT 4SM -SN OVC025
     FM040200 VRB05KT P6SM -SN SCT030 BKN050=



000
FTUS45 KRIW 031100
TAFWRL
TAF
KWRL 031128Z 0312/0412 32015G25KT 6SM -SN SCT030 OVC050
     FM031400 32013KT 5SM -SN OVC030
     FM031900 32010KT P6SM -SN BKN050
     FM040200 VRB04KT P6SM -SN SCT050 BKN080=



000
FTUS45 KRIW 031100
TAFJAC
TAF
KJAC 031128Z 0312/0412 20015KT 1SM -SN BLSN SCT005 OVC015
     FM031500 31015KT 5SM -SN BLSN BKN024
     FM031700 34011KT P6SM SCT025
     FM040000 36012KT P6SM FEW060
      AMD LTD TO CLD VIS AND WIND=



000
FTUS45 KRIW 031100
TAFBPI
TAF
KBPI 031128Z 0312/0412 VRB05KT P6SM VCSH SCT015 OVC035
     FM031330 13007KT 3SM -SN SCT008 OVC015
      TEMPO 0314/0318 1SM -SN OVC008
     FM032100 34013KT P6SM SCT025 BKN040
     FM040200 35009KT P6SM SCT040=



000
FTUS45 KRIW 031100
TAFRIW
TAF
KRIW 031128Z 0312/0412 03015G25KT 2SM -SN BLSN SCT012 OVC025
     FM031600 02012G20KT 5SM -SN OVC025
     FM031900 02011KT 6SM -SN OVC040
     FM040300 VRB05KT P6SM -SN SCT030 BKN050=



000
FTUS45 KRIW 031100
TAFCPR
TAF
KCPR 031128Z 0312/0412 03012KT 4SM -SN SCT012 OVC025
      TEMPO 0312/0316 2SM -SN
     FM040300 24006KT P6SM -SN SCT030 BKN050=



000
FTUS45 KRIW 031100
TAFRKS
TAF
KRKS 031128Z 0312/0412 07010KT 5SM -SN SCT006 OVC015
      TEMPO 0315/0319 1SM -SN
     FM040200 08008KT 5SM -SN SCT015 BKN035
     FM040500 09006KT P6SM -SN BKN050=



000
FTUS45 KRIW 031100
TAFCOD
TAF
KCOD 031128Z 0312/0412 36012G18KT 5SM -SN BLSN SCT008 OVC015
     FM031900 01010KT 6SM -SN SCT025 BKN050
     FM040200 19006KT P6SM -SN BKN050
      AMD LTD TO CLD VIS AND WIND=



000
FTUS45 KRIW 030800 AAA
TAFCOD
TAF AMD
KCOD 030841Z 0309/0406 36015G25KT 5SM -SN BLSN SCT007 OVC015
     FM031500 01010G20KT 4SM -SN OVC025
     FM031900 01010KT 6SM -SN SCT025 BKN050
     FM040200 19006KT P6SM -SN BKN050
      AMD LTD TO CLD VIS AND WIND=



000
FTUS45 KRIW 030800 AAA
TAFCOD
TAF AMD
KCOD 030841Z 0309/0406 36015G25KT 5SM -SN BLSN SCT007 OVC015
     FM031500 01010G20KT 4SM -SN OVC025
     FM031900 01010KT 6SM -SN SCT025 BKN050
     FM040200 19006KT P6SM -SN BKN050
      AMD LTD TO CLD VIS AND WIND=



000
FTUS45 KRIW 030800 AAA
TAFCPR
TAF AMD
KCPR 030840Z 0309/0406 03014G20KT 2SM -SN BLSN SCT015 OVC030
     FM031900 03008KT 4SM -SN OVC025
     FM040300 24006KT P6SM -SN SCT030 BKN050=



000
FTUS45 KRIW 030800 AAA
TAFRIW
TAF AMD
KRIW 030839Z 0309/0406 03020G30KT 5SM -SN BLSN OVC030
     FM031400 02012G20KT 5SM -SN OVC025
     FM031900 02011KT 6SM -SN OVC040
     FM040300 VRB05KT P6SM -SN SCT050 BKN080=



000
FTUS45 KRIW 030800 AAA
TAFRIW
TAF AMD
KRIW 030839Z 0309/0406 03020G30KT 5SM -SN BLSN OVC030
     FM031400 02012G20KT 5SM -SN OVC025
     FM031900 02011KT 6SM -SN OVC040
     FM040300 VRB05KT P6SM -SN SCT050 BKN080=



000
FTUS45 KRIW 030500
TAFCOD
TAF
KCOD 030534Z 0306/0406 36015G25KT 2SM -SN BLSN SCT007 OVC015
     FM031500 01010G20KT 4SM -SN OVC025
     FM031900 01010KT 6SM -SN SCT025 BKN050
     FM040200 19006KT P6SM -SN BKN050
      AMD LTD TO CLD VIS AND WIND=



000
FTUS45 KRIW 030500
TAFWRL
TAF
KWRL 030534Z 0306/0406 32017G25KT 3SM -SN BLSN SCT015 OVC030
     FM031400 32013KT 5SM -SN OVC030
     FM031900 32010KT P6SM -SN BKN050
     FM040200 VRB04KT P6SM -SN SCT050 BKN080=



000
FTUS45 KRIW 030500
TAFJAC
TAF
KJAC 030534Z 0306/0406 VRB06KT 1 1/2SM -SN SCT006 OVC015
     FM031400 36013KT 5SM -SN BKN024
     FM031700 34011KT P6SM SCT025
     FM040000 36012KT P6SM FEW060
      AMD LTD TO CLD VIS AND WIND=



000
FTUS45 KRIW 030500
TAFRKS
TAF
KRKS 030534Z 0306/0406 25014KT 5SM -SN BKN025
      TEMPO 0306/0309 2SM -SN BKN015
     FM031000 07010KT 1 1/2SM -SN SCT006 OVC015
     FM040200 08008KT 5SM -SN SCT015 BKN035
     FM040500 09006KT P6SM -SN BKN050=



000
FTUS45 KRIW 030500
TAFCOD
TAF
KCOD 030534Z 0306/0406 36015G25KT 2SM -SN BLSN SCT007 OVC015
     FM031500 01010G20KT 4SM -SN OVC025
     FM031900 01010KT 6SM -SN SCT025 BKN050
     FM040200 19006KT P6SM -SN BKN050
      AMD LTD TO CLD VIS AND WIND=



000
FTUS45 KRIW 030500
TAFCPR
TAF
KCPR 030534Z 0306/0406 03014G20KT 3/4SM -SN BLSN SCT004 OVC010
     FM031500 03012KT 2SM -SN SCT010 OVC017
     FM031900 03008KT 4SM -SN OVC025
     FM040300 24006KT P6SM -SN SCT030 BKN050=



000
FTUS45 KRIW 030500
TAFWRL
TAF
KWRL 030534Z 0306/0406 32017G25KT 3SM -SN BLSN SCT015 OVC030
     FM031400 32013KT 5SM -SN OVC030
     FM031900 32010KT P6SM -SN BKN050
     FM040200 VRB04KT P6SM -SN SCT050 BKN080=



000
FTUS45 KRIW 030500
TAFRIW
TAF
KRIW 030534Z 0306/0406 03014G24KT 1 1/2SM -SN BLSN OVC015
     FM031400 02012G20KT 5SM -SN OVC025
     FM031900 02011KT 6SM -SN OVC040
     FM040300 VRB05KT P6SM -SN SCT050 BKN080=



000
FTUS45 KRIW 030500
TAFLND
TAF
KLND 030534Z 0306/0406 29007KT 3/4SM -SN SCT007 OVC015
     FM031600 32006KT 2SM -SN OVC015
     FM031900 02004KT 4SM -SN OVC025
     FM040200 VRB05KT P6SM -SN BKN050=



000
FTUS45 KRIW 030500
TAFBPI
TAF
KBPI 030534Z 0306/0406 02008KT 4SM -SN BR SCT008 OVC015
      TEMPO 0311/0314 1SM -SN OVC008
     FM032000 34013KT P6SM SCT025 BKN040
     FM040200 35009KT P6SM SCT040=



000
FTUS45 KRIW 030500
TAFRKS
TAF
KRKS 030534Z 0306/0406 25014KT 5SM -SN BKN025
      TEMPO 0306/0309 2SM -SN BKN015
     FM031000 07010KT 1 1/2SM -SN SCT006 OVC015
     FM040200 08008KT 5SM -SN SCT015 BKN035
     FM040500 09006KT P6SM -SN BKN050=



000
FTUS45 KRIW 030500
TAFCPR
TAF
KCPR 030534Z 0306/0406 03014G20KT 3/4SM -SN BLSN SCT004 OVC010
     FM031500 03012KT 2SM -SN SCT010 OVC017
     FM031900 03008KT 4SM -SN OVC025
     FM040300 24006KT P6SM -SN SCT030 BKN050=



000
FTUS45 KRIW 030500
TAFBPI
TAF
KBPI 030534Z 0306/0406 02008KT 4SM -SN BR SCT008 OVC015
      TEMPO 0311/0314 1SM -SN OVC008
     FM032000 34013KT P6SM SCT025 BKN040
     FM040200 35009KT P6SM SCT040=



000
FTUS45 KRIW 030500
TAFJAC
TAF
KJAC 030534Z 0306/0406 VRB06KT 1 1/2SM -SN SCT006 OVC015
     FM031400 36013KT 5SM -SN BKN024
     FM031700 34011KT P6SM SCT025
     FM040000 36012KT P6SM FEW060
      AMD LTD TO CLD VIS AND WIND=



000
FTUS45 KRIW 030500
TAFLND
TAF
KLND 030534Z 0306/0406 29007KT 3/4SM -SN SCT007 OVC015
     FM031600 32006KT 2SM -SN OVC015
     FM031900 02004KT 4SM -SN OVC025
     FM040200 VRB05KT P6SM -SN BKN050=



000
FTUS45 KRIW 030500
TAFRIW
TAF
KRIW 030534Z 0306/0406 03014G24KT 1 1/2SM -SN BLSN OVC015
     FM031400 02012G20KT 5SM -SN OVC025
     FM031900 02011KT 6SM -SN OVC040
     FM040300 VRB05KT P6SM -SN SCT050 BKN080=



000
FTUS45 KRIW 030200 AAA
TAFRIW
TAF AMD
KRIW 030246Z 0303/0324 02009KT 1 1/2SM -SN OVC017
     FM030500 02020G30KT 1SM -SN BLSN OVC013
     FM031600 02017G27KT 5SM -SN OVC025
     FM031900 02013KT P6SM -SN OVC040=



000
FTUS45 KRIW 030200 AAA
TAFRIW
TAF AMD
KRIW 030246Z 0303/0324 02009KT 1 1/2SM -SN OVC017
     FM030500 02020G30KT 1SM -SN BLSN OVC013
     FM031600 02017G27KT 5SM -SN OVC025
     FM031900 02013KT P6SM -SN OVC040=



000
FTUS45 KRIW 030200 AAA
TAFRKS
TAF AMD
KRKS 030208Z 0302/0324 18008KT 5SM -SN SCT015 OVC030
     FM030500 26011KT 3/4SM -SN SCT006 OVC015
     FM031100 07009KT 1 1/2SM -SN SCT006 OVC015=



000
FTUS45 KRIW 030200 AAA
TAFRKS
TAF AMD
KRKS 030208Z 0302/0324 18008KT 5SM -SN SCT015 OVC030
     FM030500 26011KT 3/4SM -SN SCT006 OVC015
     FM031100 07009KT 1 1/2SM -SN SCT006 OVC015=



000
FTUS45 KRIW 030200 AAA
TAFJAC
TAF AMD
KJAC 030201Z 0302/0324 36006KT 2SM -SN OVC025
     FM030800 26008KT 1SM -SN SCT006 OVC015
     FM031300 02005KT P6SM -SN BKN020
     FM031800 02004KT P6SM SCT020
      AMD LTD TO CLD VIS AND WIND=



000
FTUS45 KRIW 022300
TAFWRL
TAF
KWRL 022335Z 0300/0324 VRB05KT P6SM OVC070
     FM030400 33014G24KT 3SM -SN BLSN OVC017
     FM031400 32012KT 5SM -SN OVC025
     FM031800 32013KT P6SM -SN OVC040=



000
FTUS45 KRIW 022300
TAFRIW
TAF
KRIW 022335Z 0300/0324 VRB04KT P6SM VCSH SCT030 OVC045
     FM030230 32006KT 4SM -SN OVC020
     FM030500 02020G30KT 2SM -SN BLSN OVC015
     FM031600 02017G27KT 5SM -SN OVC025
     FM031900 02013KT P6SM -SN OVC040=



000
FTUS45 KRIW 022300
TAFBPI
TAF
KBPI 022335Z 0300/0324 VRB04KT P6SM VCSH SCT028 BKN090
     FM030200 36008KT 3SM -SN OVC020
     FM031500 29010KT 5SM -SN OVC028
     FM031900 32015G25KT P6SM -SN OVC035=



000
FTUS45 KRIW 022300
TAFCPR
TAF
KCPR 022335Z 0300/0324 VRB05KT 1/2SM SN VV008
     FM030030 03007KT 1SM -SN SCT008 OVC015
     FM030300 02014G20KT 1/2SM SN BLSN OVC008
     FM031500 03012KT 2SM -SN OVC012
     FM031800 03007KT 4SM -SN OVC025=



000
FTUS45 KRIW 022300
TAFJAC
TAF
KJAC 022335Z 0300/0324 VRB05KT P6SM BKN060
     FM030800 26008KT 2SM -SN SCT006 OVC015
     FM031300 02005KT P6SM -SN BKN020
     FM031800 02004KT P6SM SCT020
      AMD LTD TO CLD VIS AND WIND=



000
FTUS45 KRIW 022300
TAFRKS
TAF
KRKS 022335Z 0300/0324 25008KT 1SM -SN SCT005 OVC018
      TEMPO 0304/0308 1/2SM SN OVC005
     FM030800 26011KT 2SM -SN SCT006 OVC015
     FM031500 26008KT 4SM -SN OVC020
      TEMPO 0318/0322 03010G20KT=



000
FTUS45 KRIW 022300
TAFCOD
TAF
KCOD 022335Z 0300/0324 36008KT P6SM BKN100
     FM030100 01012G18KT P6SM VCSH SCT020 OVC035
     FM030300 01015G25KT 2SM -SN BLSN SCT008 OVC018
     FM031500 01010G20KT 4SM -SN OVC025
     FM031800 02010KT P6SM VCSH OVC035
      AMD LTD TO CLD VIS AND WIND=



000
FTUS45 KRIW 022300
TAFLND
TAF
KLND 022335Z 0300/0324 VRB03KT P6SM VCSH SCT030 BKN060
     FM030230 35007KT 4SM -SN SCT008 OVC020
     FM030500 32006KT 1SM -SN OVC008
     FM031600 02005KT 3SM -SN OVC012
     FM031900 02004KT 5SM -SN OVC025=



000
FTUS45 KRIW 022300 AAB
TAFCPR
TAF AMD
KCPR 022309Z 0223/0318 06006KT 1/2SM SN VV008
     FM030200 02014G20KT 1/2SM SN BLSN OVC008
     FM030700 02012G22KT 3/4SM -SN BLSN VV008
     FM030900 02008KT 3/4SM -SN OVC010
     FM031500 03012KT 2SM -SN OVC012=



000
FTUS45 KRIW 022300 AAB
TAFCPR
TAF AMD
KCPR 022309Z 0223/0318 06006KT 1/2SM SN VV008
     FM030200 02014G20KT 1/2SM SN BLSN OVC008
     FM030700 02012G22KT 3/4SM -SN BLSN VV008
     FM030900 02008KT 3/4SM -SN OVC010
     FM031500 03012KT 2SM -SN OVC012=



000
FTUS45 KRIW 022200 AAA
TAFCPR
TAF AMD
KCPR 022212Z 0222/0318 VRB04KT P6SM -RASN SCT010 OVC018
     FM030000 03007KT 2SM -SN SCT008 OVC015
     FM030200 02014G20KT 1/2SM SN BLSN OVC008
     FM031500 03012KT 2SM -SN OVC012=



000
FTUS45 KRIW 021800 AAA
TAFRKS
TAF AMD
KRKS 021839Z 0219/0318 06005KT 1/2SM SN SCT002 OVC010
      TEMPO 0219/0222 1/4SM +SN VV010
     FM022200 08007KT 3SM -SN OVC015
     FM030200 26011KT 1 1/2SM -SN SCT006 OVC012
     FM031500 26008KT 4SM -SN OVC020=



000
FTUS45 KRIW 021800 AAA
TAFRKS
TAF AMD
KRKS 021839Z 0219/0318 06005KT 1/2SM SN SCT002 OVC010
      TEMPO 0219/0222 1/4SM +SN VV010
     FM022200 08007KT 3SM -SN OVC015
     FM030200 26011KT 1 1/2SM -SN SCT006 OVC012
     FM031500 26008KT 4SM -SN OVC020=



000
FTUS45 KRIW 021700
TAFRKS
TAF
KRKS 021737Z 0218/0318 06005KT P6SM -SN SCT014 OVC022
      TEMPO 0218/0222 1/2SM SN OVC012
     FM022200 08007KT 3SM -SN OVC015
     FM030200 26011KT 1 1/2SM -SN SCT006 OVC012
     FM031500 26008KT 4SM -SN OVC020=



000
FTUS45 KRIW 021700
TAFWRL
TAF
KWRL 021737Z 0218/0318 VRB03KT P6SM SCT150
     FM022300 VRB05KT P6SM VCSH OVC070
     FM030400 33014G24KT 3SM -SN BLSN OVC017
     FM031400 32012KT 5SM -SN OVC025=



000
FTUS45 KRIW 021700
TAFLND
TAF
KLND 021737Z 0218/0318 VRB04KT P6SM FEW080 SCT120 BKN150
     FM022200 02006KT P6SM VCSH SCT030 BKN060
     FM030300 35007KT 4SM -SN SCT008 OVC020
     FM030500 32006KT 1SM -SN OVC008
     FM031600 02005KT 3SM -SN OVC012=



000
FTUS45 KRIW 021700
TAFCOD
TAF
KCOD 021737Z 0218/0318 15006KT P6SM SCT200
     FM022100 03008KT P6SM VCSH SCT020 OVC035
     FM030300 01015G25KT 2SM -SN BLSN SCT008 OVC018
     FM031500 01010G20KT 4SM -SN OVC025
      AMD LTD TO CLD VIS AND WIND=



000
FTUS45 KRIW 021700
TAFRKS
TAF
KRKS 021737Z 0218/0318 06005KT P6SM -SN SCT014 OVC022
      TEMPO 0218/0222 1/2SM SN OVC012
     FM022200 08007KT 3SM -SN OVC015
     FM030200 26011KT 1 1/2SM -SN SCT006 OVC012
     FM031500 26008KT 4SM -SN OVC020=



000
FTUS45 KRIW 021700
TAFBPI
TAF
KBPI 021737Z 0218/0318 VRB05KT P6SM SCT030 BKN060
     FM022100 02006KT P6SM VCSH SCT020 OVC035
     FM030200 36008KT 3SM -SN OVC020
     FM031500 29010KT 5SM -SN OVC028=



000
FTUS45 KRIW 021700
TAFRIW
TAF
KRIW 021737Z 0218/0318 VRB05KT P6SM FEW080 SCT150
     FM022100 02008KT P6SM SCT040 BKN070
     FM030500 02020G30KT 2SM -SN BLSN OVC015
     FM031600 02017G27KT 5SM -SN OVC025=



000
FTUS45 KRIW 021700
TAFCPR
TAF
KCPR 021737Z 0218/0318 VRB04KT P6SM SCT050 BKN110
     FM022200 03007KT P6SM VCSH SCT030 OVC050
     FM030200 02014G20KT 1/2SM SN BLSN OVC008
     FM031500 03012KT 2SM -SN OVC012=



000
FTUS45 KRIW 021700
TAFJAC
TAF
KJAC 021737Z 0218/0318 VRB05KT P6SM SCT040 BKN070
     FM030000 VRB05KT P6SM VCSH SCT025 OVC050
     FM030800 26008KT 2SM -SN SCT006 OVC015
     FM031300 02005KT P6SM -SN BKN020
      AMD LTD TO CLD VIS AND WIND=



000
FTUS45 KRIW 021700
TAFCPR
TAF
KCPR 021737Z 0218/0318 VRB04KT P6SM SCT050 BKN110
     FM022200 03007KT P6SM VCSH SCT030 OVC050
     FM030200 02014G20KT 1/2SM SN BLSN OVC008
     FM031500 03012KT 2SM -SN OVC012=



000
FTUS45 KRIW 021700
TAFRIW
TAF
KRIW 021737Z 0218/0318 VRB05KT P6SM FEW080 SCT150
     FM022100 02008KT P6SM SCT040 BKN070
     FM030500 02020G30KT 2SM -SN BLSN OVC015
     FM031600 02017G27KT 5SM -SN OVC025=



000
FTUS45 KRIW 021700
TAFCOD
TAF
KCOD 021737Z 0218/0318 15006KT P6SM SCT200
     FM022100 03008KT P6SM VCSH SCT020 OVC035
     FM030300 01015G25KT 2SM -SN BLSN SCT008 OVC018
     FM031500 01010G20KT 4SM -SN OVC025
      AMD LTD TO CLD VIS AND WIND=



000
FTUS45 KRIW 021700
TAFLND
TAF
KLND 021737Z 0218/0318 VRB04KT P6SM FEW080 SCT120 BKN150
     FM022200 02006KT P6SM VCSH SCT030 BKN060
     FM030300 35007KT 4SM -SN SCT008 OVC020
     FM030500 32006KT 1SM -SN OVC008
     FM031600 02005KT 3SM -SN OVC012=



000
FTUS45 KRIW 021700
TAFWRL
TAF
KWRL 021737Z 0218/0318 VRB03KT P6SM SCT150
     FM022300 VRB05KT P6SM VCSH OVC070
     FM030400 33014G24KT 3SM -SN BLSN OVC017
     FM031400 32012KT 5SM -SN OVC025=



000
FTUS45 KRIW 021700
TAFBPI
TAF
KBPI 021737Z 0218/0318 VRB05KT P6SM SCT030 BKN060
     FM022100 02006KT P6SM VCSH SCT020 OVC035
     FM030200 36008KT 3SM -SN OVC020
     FM031500 29010KT 5SM -SN OVC028=



000
FTUS45 KRIW 021700
TAFJAC
TAF
KJAC 021737Z 0218/0318 VRB05KT P6SM SCT040 BKN070
     FM030000 VRB05KT P6SM VCSH SCT025 OVC050
     FM030800 26008KT 2SM -SN SCT006 OVC015
     FM031300 02005KT P6SM -SN BKN020
      AMD LTD TO CLD VIS AND WIND=



000
FTUS45 KRIW 021600 AAB
TAFRKS
TAF AMD
KRKS 021614Z 0216/0312 05004KT 5SM -SN SCT028 OVC040
      TEMPO 0216/0220 1SM -SN OVC025
     FM022000 07007KT P6SM VCSH SCT015 OVC030
     FM022100 08007KT 3SM -SN OVC015
     FM030200 26011KT 1 1/2SM -SN SCT006 OVC012=



000
FTUS45 KRIW 021500 CCA
TAFRKS
TAF COR
KRKS 021554Z 0216/0312 05004KT 5SM -SN OVC025
      TEMPO 0216/0220 1SM -SN
     FM022000 07007KT P6SM VCSH SCT015 OVC030
     FM022100 08007KT 3SM -SN OVC015
     FM030200 26011KT 1 1/2SM -SN SCT006 OVC012=



000
FTUS45 KRIW 021500 AAA
TAFRKS
TAF AMD
KRKS 021551Z 0216/0312 13006KT P6SM VCSH SCT030 OVC050
     FM021600 12006KT 5SM -SN OVC025
      TEMPO 0216/0220 1SM -SN
     FM022000 07007KT P6SM VCSH SCT015 OVC030
     FM022100 08007KT 3SM -SN OVC015
     FM030200 26011KT 1 1/2SM -SN SCT006 OVC012=



000
FTUS45 KRIW 021500 AAA
TAFRKS
TAF AMD
KRKS 021551Z 0216/0312 13006KT P6SM VCSH SCT030 OVC050
     FM021600 12006KT 5SM -SN OVC025
      TEMPO 0216/0220 1SM -SN
     FM022000 07007KT P6SM VCSH SCT015 OVC030
     FM022100 08007KT 3SM -SN OVC015
     FM030200 26011KT 1 1/2SM -SN SCT006 OVC012=



000
FTUS45 KRIW 021100
TAFJAC
TAF
KJAC 021126Z 0212/0312 36006KT P6SM BKN050
     FM021600 VRB05KT P6SM SCT050 BKN070
     FM030000 VRB05KT P6SM VCSH SCT025 OVC050
     FM030800 26008KT 2SM -SN SCT006 OVC015
      AMD LTD TO CLD VIS AND WIND=



000
FTUS45 KRIW 021100
TAFRIW
TAF
KRIW 021126Z 0212/0312 VRB05KT P6SM FEW080 SCT150
     FM022100 02008KT P6SM SCT040 BKN070
     FM030400 02013G21KT 2SM -SN BLSN OVC015=



000
FTUS45 KRIW 021100
TAFCPR
TAF
KCPR 021126Z 0212/0312 VRB06KT P6SM SCT080 SCT150
     FM021500 21011KT P6SM SCT050 BKN080
     FM022200 03007KT P6SM VCSH SCT030 OVC050 PROB30 0222/0302 2SM
      -SN OVC015
     FM030200 02014G20KT 1/2SM SN BLSN OVC008=



000
FTUS45 KRIW 021100
TAFBPI
TAF
KBPI 021126Z 0212/0312 VRB05KT P6SM SCT030 BKN060
     FM022100 02006KT P6SM VCSH SCT020 OVC035
     FM030200 36008KT 3SM -SN OVC020=



000
FTUS45 KRIW 021100
TAFRKS
TAF
KRKS 021126Z 0212/0312 13006KT P6SM VCSH SCT030 OVC050
     FM021330 12006KT 4SM -SN OVC030
     FM021600 07007KT P6SM VCSH SCT015 OVC030
     FM022000 08007KT 3SM -SN OVC015
     FM030200 26011KT 1 1/2SM -SN SCT006 OVC012=



000
FTUS45 KRIW 021100
TAFCOD
TAF
KCOD 021126Z 0212/0312 VRB05KT P6SM SCT200
     FM022100 03008KT P6SM VCSH SCT020 OVC035
     FM030300 01015G25KT 2SM -SN BLSN SCT008 OVC018
      AMD LTD TO CLD VIS AND WIND=



000
FTUS45 KRIW 021100
TAFLND
TAF
KLND 021126Z 0212/0312 25006KT P6SM FEW080 SCT150
     FM022200 02006KT P6SM VCSH SCT030 BKN060
     FM030300 35007KT 4SM -SN SCT008 OVC020
     FM030500 32006KT 1SM -SN OVC008=



000
FTUS45 KRIW 021100
TAFWRL
TAF
KWRL 021126Z 0212/0312 14007KT P6SM SCT150
     FM022300 VRB05KT P6SM VCSH OVC070
     FM030400 33014G24KT 3SM -SN BLSN OVC017=



000
FTUS45 KRIW 020500
TAFWRL
TAF
KWRL 020536Z 0206/0306 14007KT P6SM SCT150
     FM022300 VRB05KT P6SM VCSH OVC070
     FM030400 33014G24KT 3SM -SN BLSN OVC017=



000
FTUS45 KRIW 020500
TAFCOD
TAF
KCOD 020536Z 0206/0306 16008KT P6SM SCT200
     FM022100 03008KT P6SM VCSH SCT020 OVC035
     FM030300 01012G20KT 3SM -SN BLSN OVC018
      AMD LTD TO CLD VIS AND WIND=



000
FTUS45 KRIW 020500
TAFCPR
TAF
KCPR 020536Z 0206/0306 VRB06KT P6SM SCT080 SCT150
     FM021500 21011KT P6SM SCT050 BKN080
     FM022200 03007KT P6SM VCSH SCT030 OVC050
     FM030200 02014G20KT 1SM -SN BLSN OVC008=



000
FTUS45 KRIW 020500
TAFJAC
TAF
KJAC 020536Z 0206/0306 36006KT P6SM SCT050
     FM021600 VRB05KT P6SM SCT050 BKN070
     FM030000 VRB05KT P6SM VCSH SCT025 OVC050
      AMD LTD TO CLD VIS AND WIND=



000
FTUS45 KRIW 020500
TAFRKS
TAF
KRKS 020536Z 0206/0306 08006KT P6SM SCT030 BKN060
     FM021100 06006KT 4SM -SHSN OVC020
     FM021500 13006KT P6SM VCSH SCT020 OVC030
     FM022000 08007KT 3SM -SN OVC015
     FM030200 26011KT 1 1/2SM -SN SCT006 OVC012=



000
FTUS45 KRIW 020500
TAFRIW
TAF
KRIW 020536Z 0206/0306 30007KT P6SM FEW080 SCT150
     FM022100 02008KT P6SM SCT040 BKN070
     FM030400 02013G21KT 2SM -SN BLSN OVC015=



000
FTUS45 KRIW 020500
TAFLND
TAF
KLND 020536Z 0206/0306 25006KT P6SM FEW080 SCT150
     FM022200 02006KT P6SM VCSH SCT030 BKN060
     FM030300 35007KT 4SM -SN SCT008 OVC020
     FM030500 32006KT 1 1/2SM -SN OVC008=



000
FTUS45 KRIW 020500
TAFBPI
TAF
KBPI 020536Z 0206/0306 35006KT P6SM SCT030 BKN060
     FM022100 02006KT P6SM VCSH SCT020 OVC035
     FM030200 36008KT 3SM -SN OVC020=



000
FTUS45 KRIW 020500
TAFBPI
TAF
KBPI 020536Z 0206/0306 35006KT P6SM SCT030 BKN060
     FM022100 02006KT P6SM VCSH SCT020 OVC035
     FM030200 36008KT 3SM -SN OVC020=



000
FTUS45 KRIW 020500
TAFLND
TAF
KLND 020536Z 0206/0306 25006KT P6SM FEW080 SCT150
     FM022200 02006KT P6SM VCSH SCT030 BKN060
     FM030300 35007KT 4SM -SN SCT008 OVC020
     FM030500 32006KT 1 1/2SM -SN OVC008=



000
FTUS45 KRIW 020500
TAFCPR
TAF
KCPR 020536Z 0206/0306 VRB06KT P6SM SCT080 SCT150
     FM021500 21011KT P6SM SCT050 BKN080
     FM022200 03007KT P6SM VCSH SCT030 OVC050
     FM030200 02014G20KT 1SM -SN BLSN OVC008=



000
FTUS45 KRIW 020500
TAFWRL
TAF
KWRL 020536Z 0206/0306 14007KT P6SM SCT150
     FM022300 VRB05KT P6SM VCSH OVC070
     FM030400 33014G24KT 3SM -SN BLSN OVC017=



000
FTUS45 KRIW 020500
TAFJAC
TAF
KJAC 020536Z 0206/0306 36006KT P6SM SCT050
     FM021600 VRB05KT P6SM SCT050 BKN070
     FM030000 VRB05KT P6SM VCSH SCT025 OVC050
      AMD LTD TO CLD VIS AND WIND=



000
FTUS45 KRIW 020500
TAFRIW
TAF
KRIW 020536Z 0206/0306 30007KT P6SM FEW080 SCT150
     FM022100 02008KT P6SM SCT040 BKN070
     FM030400 02013G21KT 2SM -SN BLSN OVC015=



000
FTUS45 KRIW 020500
TAFCOD
TAF
KCOD 020536Z 0206/0306 16008KT P6SM SCT200
     FM022100 03008KT P6SM VCSH SCT020 OVC035
     FM030300 01012G20KT 3SM -SN BLSN OVC018
      AMD LTD TO CLD VIS AND WIND=



000
FTUS45 KRIW 020500
TAFRKS
TAF
KRKS 020536Z 0206/0306 08006KT P6SM SCT030 BKN060
     FM021100 06006KT 4SM -SHSN OVC020
     FM021500 13006KT P6SM VCSH SCT020 OVC030
     FM022000 08007KT 3SM -SN OVC015
     FM030200 26011KT 1 1/2SM -SN SCT006 OVC012=



000
FTUS45 KRIW 012300
TAFCPR
TAF
KCPR 012340Z 0200/0224 VRB05KT P6SM FEW030 BKN150
     FM020600 21006KT P6SM BKN050
     FM021500 21016G23KT P6SM SCT030 BKN060=



000
FTUS45 KRIW 012300
TAFRKS
TAF
KRKS 012340Z 0200/0224 14007KT P6SM SCT050 BKN150
     FM020400 08007KT P6SM SCT020 BKN040
     FM021200 09009KT P6SM VCSH SCT015 BKN035
     FM022000 08009KT 5SM -SN SCT010 OVC025=



000
FTUS45 KRIW 012300
TAFRIW
TAF
KRIW 012340Z 0200/0224 VRB04KT P6SM SCT030 BKN150
     FM022100 03006KT P6SM SCT030 BKN060=



000
FTUS45 KRIW 012300
TAFCOD
TAF
KCOD 012340Z 0200/0224 14009KT P6SM SKC
     FM020300 19006KT P6SM SCT150
     FM022100 03008KT P6SM VCSH SCT020 BKN060
      AMD LTD TO CLD VIS AND WIND=



000
FTUS45 KRIW 012300
TAFWRL
TAF
KWRL 012340Z 0200/0224 VRB05KT P6SM SKC
     FM020900 VRB04KT P6SM FEW020 BKN150=



000
FTUS45 KRIW 012300
TAFBPI
TAF
KBPI 012340Z 0200/0224 VRB05KT P6SM FEW025 SCT050
     FM020300 VRB04KT P6SM BKN050
     FM022100 18005KT P6SM VCSH SCT015 BKN040=



000
FTUS45 KRIW 012300
TAFLND
TAF
KLND 012340Z 0200/0224 VRB05KT P6SM SCT030 BKN150
     FM022200 02006KT P6SM VCSH SCT030 BKN060=



000
FTUS45 KRIW 012300
TAFJAC
TAF
KJAC 012340Z 0200/0224 VRB04KT P6SM SKC
     FM020200 20006KT P6SM SCT025
     FM020900 18006KT P6SM SCT020 BKN050
      AMD LTD TO CLD VIS AND WIND=



000
FTUS45 KRIW 012300
TAFBPI
TAF
KBPI 012340Z 0200/0224 VRB05KT P6SM FEW025 SCT050
     FM020300 VRB04KT P6SM BKN050
     FM022100 18005KT P6SM VCSH SCT015 BKN040=



000
FTUS45 KRIW 012300
TAFLND
TAF
KLND 012340Z 0200/0224 VRB05KT P6SM SCT030 BKN150
     FM022200 02006KT P6SM VCSH SCT030 BKN060=



000
FTUS45 KRIW 012300
TAFRKS
TAF
KRKS 012340Z 0200/0224 14007KT P6SM SCT050 BKN150
     FM020400 08007KT P6SM SCT020 BKN040
     FM021200 09009KT P6SM VCSH SCT015 BKN035
     FM022000 08009KT 5SM -SN SCT010 OVC025=



000
FTUS45 KRIW 012300
TAFRIW
TAF
KRIW 012340Z 0200/0224 VRB04KT P6SM SCT030 BKN150
     FM022100 03006KT P6SM SCT030 BKN060=



000
FTUS45 KRIW 012300
TAFCOD
TAF
KCOD 012340Z 0200/0224 14009KT P6SM SKC
     FM020300 19006KT P6SM SCT150
     FM022100 03008KT P6SM VCSH SCT020 BKN060
      AMD LTD TO CLD VIS AND WIND=



000
FTUS45 KRIW 012300
TAFWRL
TAF
KWRL 012340Z 0200/0224 VRB05KT P6SM SKC
     FM020900 VRB04KT P6SM FEW020 BKN150=



000
FTUS45 KRIW 012300
TAFCPR
TAF
KCPR 012340Z 0200/0224 VRB05KT P6SM FEW030 BKN150
     FM020600 21006KT P6SM BKN050
     FM021500 21016G23KT P6SM SCT030 BKN060=



000
FTUS45 KRIW 012300
TAFJAC
TAF
KJAC 012340Z 0200/0224 VRB04KT P6SM SKC
     FM020200 20006KT P6SM SCT025
     FM020900 18006KT P6SM SCT020 BKN050
      AMD LTD TO CLD VIS AND WIND=



000
FTUS45 KRIW 012000 AAA
TAFLND
TAF AMD
KLND 012041Z 0121/0218 VRB05KT P6SM OVC030
     FM020600 VRB04KT P6SM VCSH SCT012 BKN035=



000
FTUS45 KRIW 012000 AAA
TAFLND
TAF AMD
KLND 012041Z 0121/0218 VRB05KT P6SM OVC030
     FM020600 VRB04KT P6SM VCSH SCT012 BKN035=



000
FTUS45 KRIW 012000 AAA
TAFRIW
TAF AMD
KRIW 012041Z 0121/0218 VRB04KT P6SM BKN030
     FM020500 24005KT P6SM SCT015 BKN035=



000
FTUS45 KRIW 011700
TAFWRL
TAF
KWRL 011720Z 0118/0218 VRB05KT P6SM SCT030
     FM020900 VRB04KT P6SM SCT020=



000
FTUS45 KRIW 011700
TAFCPR
TAF
KCPR 011720Z 0118/0218 VRB05KT P6SM SCT025
     FM020600 21006KT P6SM SCT020 BKN040
     FM021500 21016G23KT P6SM SCT030 BKN060=



000
FTUS45 KRIW 011700
TAFRIW
TAF
KRIW 011720Z 0118/0218 VRB04KT P6SM BKN035
     FM012100 VRB04KT P6SM SCT035
     FM020500 24005KT P6SM SCT015 BKN035=



000
FTUS45 KRIW 011700
TAFBPI
TAF
KBPI 011720Z 0118/0218 VRB05KT P6SM VCFG SCT012 OVC025
     FM012200 VRB05KT P6SM SCT020 BKN040
     FM020500 VRB04KT P6SM SCT010 OVC025=



000
FTUS45 KRIW 011700
TAFRKS
TAF
KRKS 011720Z 0118/0218 07010KT P6SM SCT030 BKN050
     FM020400 08007KT P6SM SCT020 BKN040
     FM021200 09009KT P6SM VCSH SCT015 BKN035=



000
FTUS45 KRIW 011700
TAFLND
TAF
KLND 011720Z 0118/0218 VRB05KT P6SM OVC030
     FM012100 VRB05KT P6SM SCT030
     FM020600 VRB04KT P6SM VCSH SCT012 BKN035=



000
FTUS45 KRIW 011700
TAFCOD
TAF
KCOD 011720Z 0118/0218 VRB04KT P6SM SKC
     FM020600 18006KT P6SM SCT020
      AMD LTD TO CLD VIS AND WIND=



000
FTUS45 KRIW 011700
TAFRIW
TAF
KRIW 011720Z 0118/0218 VRB04KT P6SM BKN035
     FM012100 VRB04KT P6SM SCT035
     FM020500 24005KT P6SM SCT015 BKN035=



000
FTUS45 KRIW 011700
TAFBPI
TAF
KBPI 011720Z 0118/0218 VRB05KT P6SM VCFG SCT012 OVC025
     FM012200 VRB05KT P6SM SCT020 BKN040
     FM020500 VRB04KT P6SM SCT010 OVC025=



000
FTUS45 KRIW 011700
TAFCPR
TAF
KCPR 011720Z 0118/0218 VRB05KT P6SM SCT025
     FM020600 21006KT P6SM SCT020 BKN040
     FM021500 21016G23KT P6SM SCT030 BKN060=



000
FTUS45 KRIW 011700
TAFJAC
TAF
KJAC 011720Z 0118/0218 VRB04KT P6SM SKC
     FM020200 20006KT P6SM SCT025
     FM020900 18006KT P6SM SCT020 BKN050
      AMD LTD TO CLD VIS AND WIND=



000
FTUS45 KRIW 011700
TAFRKS
TAF
KRKS 011720Z 0118/0218 07010KT P6SM SCT030 BKN050
     FM020400 08007KT P6SM SCT020 BKN040
     FM021200 09009KT P6SM VCSH SCT015 BKN035=



000
FTUS45 KRIW 011700
TAFJAC
TAF
KJAC 011720Z 0118/0218 VRB04KT P6SM SKC
     FM020200 20006KT P6SM SCT025
     FM020900 18006KT P6SM SCT020 BKN050
      AMD LTD TO CLD VIS AND WIND=



000
FTUS45 KRIW 011700
TAFLND
TAF
KLND 011720Z 0118/0218 VRB05KT P6SM OVC030
     FM012100 VRB05KT P6SM SCT030
     FM020600 VRB04KT P6SM VCSH SCT012 BKN035=



000
FTUS45 KRIW 011700
TAFWRL
TAF
KWRL 011720Z 0118/0218 VRB05KT P6SM SCT030
     FM020900 VRB04KT P6SM SCT020=



000
FTUS45 KRIW 011700
TAFCOD
TAF
KCOD 011720Z 0118/0218 VRB04KT P6SM SKC
     FM020600 18006KT P6SM SCT020
      AMD LTD TO CLD VIS AND WIND=



000
FTUS45 KRIW 011300 AAA
TAFCPR
TAF AMD
KCPR 011333Z 0114/0212 VRB05KT P6SM SCT025
      TEMPO 0114/0116 BKN025
     FM011800 VRB04KT P6SM SCT050
     FM020600 21006KT P6SM BKN080=



000
FTUS45 KRIW 011300 AAA
TAFWRL
TAF AMD
KWRL 011332Z 0114/0212 VRB05KT P6SM FEW050
     FM011900 VRB04KT P6SM SKC=



000
FTUS45 KRIW 011300 AAA
TAFJAC
TAF AMD
KJAC 011331Z 0114/0212 36007KT P6SM SCT030
      TEMPO 0114/0117 BKN030
     FM011900 VRB04KT P6SM SKC
     FM020200 36006KT P6SM SCT060
      AMD LTD TO CLD VIS AND WIND=



000
FTUS45 KRIW 011100
TAFBPI
TAF
KBPI 011127Z 0112/0212 VRB05KT P6SM OVC030
     FM011900 VRB05KT P6SM FEW030 SCT050
     FM020200 VRB04KT P6SM BKN070=



000
FTUS45 KRIW 011100
TAFJAC
TAF
KJAC 011127Z 0112/0212 36010KT P6SM SKC
     FM011800 VRB04KT P6SM SKC
     FM020200 36006KT P6SM SCT060
      AMD LTD TO CLD VIS AND WIND=



000
FTUS45 KRIW 011100
TAFCOD
TAF
KCOD 011127Z 0112/0212 VRB04KT P6SM SCT050
     FM011800 18006KT P6SM SKC
      AMD LTD TO CLD VIS AND WIND=



000
FTUS45 KRIW 011100
TAFWRL
TAF
KWRL 011127Z 0112/0212 VRB05KT P6SM BKN050
     FM011900 VRB04KT P6SM SKC=



000
FTUS45 KRIW 011100
TAFCPR
TAF
KCPR 011127Z 0112/0212 VRB05KT P6SM BKN035
     FM011800 VRB04KT P6SM SCT050
     FM020600 21006KT P6SM BKN080=



000
FTUS45 KRIW 011100
TAFRIW
TAF
KRIW 011127Z 0112/0212 VRB04KT P6SM OVC030
     FM011900 VRB04KT P6SM SCT030
     FM020100 24005KT P6SM SCT090=



000
FTUS45 KRIW 011100
TAFLND
TAF
KLND 011127Z 0112/0212 VRB05KT P6SM OVC030
     FM011900 VRB05KT P6SM SCT030
     FM020100 VRB04KT P6SM SCT090=



000
FTUS45 KRIW 011100
TAFRKS
TAF
KRKS 011127Z 0112/0212 07010KT P6SM SCT030 BKN050
     FM020400 08007KT P6SM SCT050 BKN100
     FM020900 VRB05KT P6SM VCSH SCT030 BKN050=



000
FTUS45 KRIW 010900 AAA
TAFRKS
TAF AMD
KRKS 010901Z 0109/0206 07011KT P6SM VCSH BKN025
     FM011500 08011KT P6SM BKN030
     FM011900 08010KT P6SM SCT030 BKN045
     FM020400 VRB05KT P6SM BKN060=



000
FTUS45 KRIW 010900 AAA
TAFRKS
TAF AMD
KRKS 010901Z 0109/0206 07011KT P6SM VCSH BKN025
     FM011500 08011KT P6SM BKN030
     FM011900 08010KT P6SM SCT030 BKN045
     FM020400 VRB05KT P6SM BKN060=



000
FTUS45 KRIW 010500
TAFRIW
TAF
KRIW 010525Z 0106/0206 VRB04KT P6SM OVC035
     FM010900 VRB04KT P6SM OVC028
     FM011900 VRB04KT P6SM SCT030
     FM020100 24005KT P6SM FEW040 SCT090=



000
FTUS45 KRIW 010500
TAFWRL
TAF
KWRL 010525Z 0106/0206 VRB05KT P6SM OVC040
     FM011900 VRB04KT P6SM SCT040
     FM020200 VRB04KT P6SM SKC=



000
FTUS45 KRIW 010500
TAFRKS
TAF
KRKS 010525Z 0106/0206 07015KT 4SM -SN SCT028 OVC035
      TEMPO 0106/0110 2SM -SN OVC024
     FM011000 07011KT P6SM VCSH OVC026
     FM011500 08011KT P6SM BKN030
     FM011900 08010KT P6SM SCT030 BKN045
     FM020400 VRB05KT P6SM BKN060=



000
FTUS45 KRIW 010500
TAFWRL
TAF
KWRL 010525Z 0106/0206 VRB05KT P6SM OVC040
     FM011900 VRB04KT P6SM SCT040
     FM020200 VRB04KT P6SM SKC=



000
FTUS45 KRIW 010500
TAFRIW
TAF
KRIW 010525Z 0106/0206 VRB04KT P6SM OVC035
     FM010900 VRB04KT P6SM OVC028
     FM011900 VRB04KT P6SM SCT030
     FM020100 24005KT P6SM FEW040 SCT090=



000
FTUS45 KRIW 010500
TAFLND
TAF
KLND 010525Z 0106/0206 VRB05KT P6SM OVC028
     FM011800 VRB05KT P6SM SCT030
     FM020100 VRB04KT P6SM FEW040 SCT080=



000
FTUS45 KRIW 010500
TAFJAC
TAF
KJAC 010525Z 0106/0206 36005KT P6SM SCT040
     FM011500 VRB04KT P6SM SKC
     FM020200 36006KT P6SM FEW080
      AMD LTD TO CLD VIS AND WIND=



000
FTUS45 KRIW 010500
TAFBPI
TAF
KBPI 010525Z 0106/0206 18006KT P6SM BKN050
     FM011700 VRB05KT P6SM SCT050 SCT080
     FM020200 VRB04KT P6SM BKN070=



000
FTUS45 KRIW 010500
TAFRKS
TAF
KRKS 010525Z 0106/0206 07015KT 4SM -SN SCT028 OVC035
      TEMPO 0106/0110 2SM -SN OVC024
     FM011000 07011KT P6SM VCSH OVC026
     FM011500 08011KT P6SM BKN030
     FM011900 08010KT P6SM SCT030 BKN045
     FM020400 VRB05KT P6SM BKN060=



000
FTUS45 KRIW 010500
TAFCPR
TAF
KCPR 010525Z 0106/0206 02009KT P6SM VCSH SCT025 OVC040
      TEMPO 0106/0109 6SM -SN BKN026
     FM010900 02006KT P6SM BKN026
     FM011900 VRB04KT P6SM SCT026 BKN050
     FM020300 21006KT P6SM BKN080=



000
FTUS45 KRIW 010500
TAFCOD
TAF
KCOD 010525Z 0106/0206 VRB04KT P6SM BKN060
     FM011600 16006KT P6SM SCT050
     FM020200 18005KT P6SM SKC
      AMD LTD TO CLD VIS AND WIND=



000
FTUS45 KRIW 010300 AAA
TAFRKS
TAF AMD
KRKS 010333Z 0104/0124 07015KT 3SM -SN OVC028
      TEMPO 0104/0107 2SM -SN OVC018
     FM010800 07013KT P6SM VCSH SCT012 BKN020
     FM011200 07011KT P6SM BKN028
     FM011800 07015G23KT P6SM VCSH SCT020 BKN040=



000
FTUS45 KRIW 282300
TAFWRL
TAF
KWRL 282330Z 0100/0124 33006KT P6SM VCSH SCT020 BKN040
     FM010100 VRB04KT P6SM -SN SCT015 BKN030
     FM011000 VRB04KT P6SM VCFG SCT010 OVC020=



000
FTUS45 KRIW 282300
TAFBPI
TAF
KBPI 282330Z 0100/0124 16008KT P6SM SCT020 BKN035
     FM010700 VRB05KT P6SM VCFG SCT010 OVC025
     FM011800 VRB05KT P6SM SCT020 BKN040=



000
FTUS45 KRIW 282300
TAFCOD
TAF
KCOD 282330Z 0100/0124 05007KT P6SM VCSH SCT020 BKN040
     FM010800 VRB04KT P6SM VCFG SCT012 OVC025
     FM011800 VRB05KT P6SM SCT020 BKN050
      AMD LTD TO CLD VIS AND WIND=



000
FTUS45 KRIW 282300
TAFRKS
TAF
KRKS 282330Z 0100/0124 07015G22KT P6SM VCSH SCT012 OVC020
     FM010300 07014G22KT P6SM -SN OVC025
     FM010800 07013KT P6SM VCFG SCT012 BKN020
     FM011800 07015G23KT P6SM VCSH SCT020 BKN040=



000
FTUS45 KRIW 282300
TAFRIW
TAF
KRIW 282330Z 0100/0124 07008KT P6SM VCSH SCT020 BKN040
     FM010600 06006KT P6SM VCFG SCT012 OVC022
     FM011700 VRB06KT P6SM SCT020 BKN050=



000
FTUS45 KRIW 282300
TAFJAC
TAF
KJAC 282330Z 0100/0124 36006KT P6SM VCSH SCT020 BKN040
     FM010600 36006KT P6SM VCFG SCT010 BKN030
     FM011800 VRB06KT P6SM VCSH SCT020 BKN050
      AMD LTD TO CLD VIS AND WIND=



000
FTUS45 KRIW 282300
TAFLND
TAF
KLND 282330Z 0100/0124 05005KT P6SM -SN SCT015 OVC025
     FM010500 VRB04KT 4SM BR SCT012 OVC022
     FM011800 VRB05KT P6SM SCT020 BKN050=



000
FTUS45 KRIW 282300
TAFBPI
TAF
KBPI 282330Z 0100/0124 16008KT P6SM SCT020 BKN035
     FM010700 VRB05KT P6SM VCFG SCT010 OVC025
     FM011800 VRB05KT P6SM SCT020 BKN040=



000
FTUS45 KRIW 282300
TAFCOD
TAF
KCOD 282330Z 0100/0124 05007KT P6SM VCSH SCT020 BKN040
     FM010800 VRB04KT P6SM VCFG SCT012 OVC025
     FM011800 VRB05KT P6SM SCT020 BKN050
      AMD LTD TO CLD VIS AND WIND=



000
FTUS45 KRIW 282300
TAFRKS
TAF
KRKS 282330Z 0100/0124 07015G22KT P6SM VCSH SCT012 OVC020
     FM010300 07014G22KT P6SM -SN OVC025
     FM010800 07013KT P6SM VCFG SCT012 BKN020
     FM011800 07015G23KT P6SM VCSH SCT020 BKN040=



000
FTUS45 KRIW 282300
TAFLND
TAF
KLND 282330Z 0100/0124 05005KT P6SM -SN SCT015 OVC025
     FM010500 VRB04KT 4SM BR SCT012 OVC022
     FM011800 VRB05KT P6SM SCT020 BKN050=



000
FTUS45 KRIW 282300
TAFWRL
TAF
KWRL 282330Z 0100/0124 33006KT P6SM VCSH SCT020 BKN040
     FM010100 VRB04KT P6SM -SN SCT015 BKN030
     FM011000 VRB04KT P6SM VCFG SCT010 OVC020=



000
FTUS45 KRIW 282300
TAFRIW
TAF
KRIW 282330Z 0100/0124 07008KT P6SM VCSH SCT020 BKN040
     FM010600 06006KT P6SM VCFG SCT012 OVC022
     FM011700 VRB06KT P6SM SCT020 BKN050=



000
FTUS45 KRIW 282300
TAFJAC
TAF
KJAC 282330Z 0100/0124 36006KT P6SM VCSH SCT020 BKN040
     FM010600 36006KT P6SM VCFG SCT010 BKN030
     FM011800 VRB06KT P6SM VCSH SCT020 BKN050
      AMD LTD TO CLD VIS AND WIND=



000
FTUS45 KRIW 282300
TAFCPR
TAF
KCPR 282330Z 0100/0124 04012KT P6SM -SN SCT015 BKN035
     FM010300 03007KT P6SM VCSH SCT016 OVC026
     FM010700 02006KT 5SM BR SCT012 OVC025
     FM011800 VRB06KT P6SM SCT020 BKN050=



000
FTUS45 KRIW 282300
TAFCPR
TAF
KCPR 282330Z 0100/0124 04012KT P6SM -SN SCT015 BKN035
     FM010300 03007KT P6SM VCSH SCT016 OVC026
     FM010700 02006KT 5SM BR SCT012 OVC025
     FM011800 VRB06KT P6SM SCT020 BKN050=



000
FTUS45 KRIW 281900 AAA
TAFLND
TAF AMD
KLND 281936Z 2820/0118 VRB04KT 3SM -SN BR SCT010 OVC020
     FM282100 05005KT 5SM -SN SCT015 OVC025
     FM010400 VRB04KT 4SM BR SCT012 OVC024=



000
FTUS45 KRIW 281900 AAA
TAFLND
TAF AMD
KLND 281936Z 2820/0118 VRB04KT 3SM -SN BR SCT010 OVC020
     FM282100 05005KT 5SM -SN SCT015 OVC025
     FM010400 VRB04KT 4SM BR SCT012 OVC024=



000
FTUS45 KRIW 281700
TAFJAC
TAF
KJAC 281731Z 2818/0118 02009KT P6SM VCSH SCT020 BKN026
     FM010300 36006KT P6SM BKN040
     FM010600 36006KT P6SM VCFG SCT010 BKN040
      AMD LTD TO CLD VIS AND WIND=



000
FTUS45 KRIW 281700
TAFCOD
TAF
KCOD 281731Z 2818/0118 05007KT P6SM VCSH SCT020 BKN050
     FM010200 VRB05KT P6SM SCT016 BKN040
     FM010800 VRB04KT P6SM VCFG SCT012 OVC025
      AMD LTD TO CLD VIS AND WIND=



000
FTUS45 KRIW 281700
TAFCPR
TAF
KCPR 281731Z 2818/0118 04012KT 4SM -SN BR SCT015 BKN035
     FM282300 03007KT P6SM VCSH SCT016 OVC026
     FM010500 02006KT 5SM BR SCT012 OVC025=



000
FTUS45 KRIW 281700
TAFRIW
TAF
KRIW 281731Z 2818/0118 05006KT 4SM -SN BR SCT012 OVC030
     FM282300 07008KT P6SM -SN OVC024
     FM010600 06006KT P6SM VCFG SCT012 OVC024=



000
FTUS45 KRIW 281700
TAFBPI
TAF
KBPI 281731Z 2818/0118 16007KT P6SM VCSH BKN030
     FM010000 16008KT P6SM SCT020 BKN035
     FM010700 VRB05KT P6SM VCFG SCT010 OVC025=



000
FTUS45 KRIW 281700
TAFCPR
TAF
KCPR 281731Z 2818/0118 04012KT 4SM -SN BR SCT015 BKN035
     FM282300 03007KT P6SM VCSH SCT016 OVC026
     FM010500 02006KT 5SM BR SCT012 OVC025=



000
FTUS45 KRIW 281700
TAFLND
TAF
KLND 281731Z 2818/0118 VRB04KT 2SM -SN BR SCT010 OVC025
     FM282100 05005KT 5SM -SN SCT015 OVC025
     FM010400 VRB04KT 4SM BR SCT012 OVC024=



000
FTUS45 KRIW 281700
TAFRIW
TAF
KRIW 281731Z 2818/0118 05006KT 4SM -SN BR SCT012 OVC030
     FM282300 07008KT P6SM -SN OVC024
     FM010600 06006KT P6SM VCFG SCT012 OVC024=



000
FTUS45 KRIW 281700
TAFRKS
TAF
KRKS 281731Z 2818/0118 07015G22KT P6SM VCSH SCT012 OVC020
     FM010000 07014G22KT P6SM -SN OVC025
     FM010600 07013KT P6SM VCFG SCT012 BKN020=



000
FTUS45 KRIW 281700
TAFJAC
TAF
KJAC 281731Z 2818/0118 02009KT P6SM VCSH SCT020 BKN026
     FM010300 36006KT P6SM BKN040
     FM010600 36006KT P6SM VCFG SCT010 BKN040
      AMD LTD TO CLD VIS AND WIND=



000
FTUS45 KRIW 281700
TAFWRL
TAF
KWRL 281731Z 2818/0118 33006KT P6SM VCSH SCT020 BKN045
     FM010100 VRB04KT P6SM -SN SCT015 BKN030
     FM011000 VRB04KT P6SM VCFG SCT010 OVC020=



000
FTUS45 KRIW 281700
TAFCOD
TAF
KCOD 281731Z 2818/0118 05007KT P6SM VCSH SCT020 BKN050
     FM010200 VRB05KT P6SM SCT016 BKN040
     FM010800 VRB04KT P6SM VCFG SCT012 OVC025
      AMD LTD TO CLD VIS AND WIND=



000
FTUS45 KRIW 281700
TAFBPI
TAF
KBPI 281731Z 2818/0118 16007KT P6SM VCSH BKN030
     FM010000 16008KT P6SM SCT020 BKN035
     FM010700 VRB05KT P6SM VCFG SCT010 OVC025=



000
FTUS45 KRIW 281700
TAFLND
TAF
KLND 281731Z 2818/0118 VRB04KT 2SM -SN BR SCT010 OVC025
     FM282100 05005KT 5SM -SN SCT015 OVC025
     FM010400 VRB04KT 4SM BR SCT012 OVC024=



000
FTUS45 KRIW 281700
TAFWRL
TAF
KWRL 281731Z 2818/0118 33006KT P6SM VCSH SCT020 BKN045
     FM010100 VRB04KT P6SM -SN SCT015 BKN030
     FM011000 VRB04KT P6SM VCFG SCT010 OVC020=



000
FTUS45 KRIW 281700
TAFRKS
TAF
KRKS 281731Z 2818/0118 07015G22KT P6SM VCSH SCT012 OVC020
     FM010000 07014G22KT P6SM -SN OVC025
     FM010600 07013KT P6SM VCFG SCT012 BKN020=



    US Dept of Commerce
    National Oceanic and Atmospheric Administration
    National Weather Service
    1325 East West Highway
    Silver Spring, MD 20910
    Page Author: NWS Internet Services Team
Disclaimer
Information Quality
Credits
Glossary
Privacy Policy
Freedom of Information Act (FOIA)
About Us
Career Opportunities